Portada
METAR-TAF:

METAR-TAF

Aeroports :

Lleó, Espanya

latitud: 42-35N, longitud: 005-39W, altitud: 926 m

Observació

L'informe es va fer fa 14 hores i 51 minuts, a les 05:00 UTC
Vent 2 kt amb direcció variable
Temperatura 13°C
Humitat 62%
Pressió 1021 hPa
Visibilitat 10 km o més

METAR: LELN 210500Z AUTO VRB02KT 9999 NCD 13/06 Q1021

Hora: 21:51 (19:51 UTC)

Pronòstic

L'informe es va fer fa 14 hores i 51 minuts, a les 05:00 UTC
Pronòstic vàlid del 21 a les 06 UTC al 21 a les 15 UTC
Vent 3 kt amb direcció variable
Visibilitat 10 km o més
sense núvols per sota de 1500 mi sense presència de cumulonimbus.

TAF: LELN 210500Z 2106/2115 VRB03KT CAVOK

Observacions i pronòstics meteorològics de més de 4000 aeroports (METAR i TAF).

Les estacions disponibles són els punts grocs i vermells al mapa.

Posi el ratolí al punt desitjat per veure el nom de l'estació.

Feu clic per veure les observacions i els pronòstics meteorològics.

Per canviar el mapa: feu clic els botons verds amb una creu de color negre per apropar; al botó verd amb un guió per allunyar la imatge; o en les fletxes verdes per a mapes adjacents.


METAR-TAF: